sensor_id;sensor_type;location;lat;lon;timestamp;P1;durP1;ratioP1;P2;durP2;ratioP2
77524;SDS011;66638;50.050;21.124;2024-02-04T00:01:21;7.50;;;5.10;;
77524;SDS011;66638;50.050;21.124;2024-02-04T00:04:08;6.50;;;5.20;;
77524;SDS011;66638;50.050;21.124;2024-02-04T00:09:43;7.80;;;5.10;;
77524;SDS011;66638;50.050;21.124;2024-02-04T00:12:31;8.80;;;5.80;;
77524;SDS011;66638;50.050;21.124;2024-02-04T00:15:18;7.70;;;5.60;;
77524;SDS011;66638;50.050;21.124;2024-02-04T00:18:06;6.30;;;4.60;;
77524;SDS011;66638;50.050;21.124;2024-02-04T00:20:53;5.60;;;4.30;;
77524;SDS011;66638;50.050;21.124;2024-02-04T00:23:40;7.60;;;5.60;;
77524;SDS011;66638;50.050;21.124;2024-02-04T00:26:27;7.10;;;5.40;;
77524;SDS011;66638;50.050;21.124;2024-02-04T00:29:14;5.70;;;3.70;;
77524;SDS011;66638;50.050;21.124;2024-02-04T00:32:01;6.00;;;4.70;;
77524;SDS011;66638;50.050;21.124;2024-02-04T00:34:48;7.30;;;4.90;;
77524;SDS011;66638;50.050;21.124;2024-02-04T00:40:23;6.40;;;5.40;;
77524;SDS011;66638;50.050;21.124;2024-02-04T00:43:11;7.90;;;6.30;;
77524;SDS011;66638;50.050;21.124;2024-02-04T00:45:58;8.50;;;5.80;;
77524;SDS011;66638;50.050;21.124;2024-02-04T00:48:47;9.20;;;7.20;;
77524;SDS011;66638;50.050;21.124;2024-02-04T00:51:34;6.90;;;6.00;;
77524;SDS011;66638;50.050;21.124;2024-02-04T00:54:21;11.00;;;7.70;;
77524;SDS011;66638;50.050;21.124;2024-02-04T00:59:55;8.10;;;5.40;;
77524;SDS011;66638;50.050;21.124;2024-02-04T01:02:43;6.70;;;5.00;;
77524;SDS011;66638;50.050;21.124;2024-02-04T01:08:17;7.00;;;5.10;;
77524;SDS011;66638;50.050;21.124;2024-02-04T01:11:05;7.20;;;5.20;;
77524;SDS011;66638;50.050;21.124;2024-02-04T01:13:52;7.80;;;4.80;;
77524;SDS011;66638;50.050;21.124;2024-02-04T01:16:40;6.30;;;4.90;;
77524;SDS011;66638;50.050;21.124;2024-02-04T01:19:27;5.40;;;4.20;;
77524;SDS011;66638;50.050;21.124;2024-02-04T01:22:14;6.80;;;4.90;;
77524;SDS011;66638;50.050;21.124;2024-02-04T01:25:01;8.80;;;5.90;;
77524;SDS011;66638;50.050;21.124;2024-02-04T01:27:47;6.30;;;4.60;;
77524;SDS011;66638;50.050;21.124;2024-02-04T01:30:35;7.50;;;5.70;;
77524;SDS011;66638;50.050;21.124;2024-02-04T01:33:24;5.70;;;4.50;;
77524;SDS011;66638;50.050;21.124;2024-02-04T01:36:12;6.70;;;4.50;;
77524;SDS011;66638;50.050;21.124;2024-02-04T01:38:59;6.90;;;4.90;;
77524;SDS011;66638;50.050;21.124;2024-02-04T01:41:46;6.20;;;5.10;;
77524;SDS011;66638;50.050;21.124;2024-02-04T01:44:34;8.00;;;5.80;;
77524;SDS011;66638;50.050;21.124;2024-02-04T01:47:21;6.10;;;4.40;;
77524;SDS011;66638;50.050;21.124;2024-02-04T01:50:08;6.60;;;4.20;;
77524;SDS011;66638;50.050;21.124;2024-02-04T01:52:56;6.10;;;4.30;;
77524;SDS011;66638;50.050;21.124;2024-02-04T01:55:44;5.30;;;4.00;;
77524;SDS011;66638;50.050;21.124;2024-02-04T01:58:31;6.50;;;4.10;;
77524;SDS011;66638;50.050;21.124;2024-02-04T02:01:18;5.50;;;4.10;;
77524;SDS011;66638;50.050;21.124;2024-02-04T02:04:06;6.60;;;4.00;;
77524;SDS011;66638;50.050;21.124;2024-02-04T02:09:40;5.50;;;3.80;;
77524;SDS011;66638;50.050;21.124;2024-02-04T02:12:35;5.30;;;3.90;;
77524;SDS011;66638;50.050;21.124;2024-02-04T02:15:40;5.50;;;4.10;;
77524;SDS011;66638;50.050;21.124;2024-02-04T02:18:32;7.30;;;4.50;;
77524;SDS011;66638;50.050;21.124;2024-02-04T02:21:44;6.70;;;4.50;;
77524;SDS011;66638;50.050;21.124;2024-02-04T02:24:43;6.80;;;5.10;;
77524;SDS011;66638;50.050;21.124;2024-02-04T02:27:32;6.40;;;4.50;;
77524;SDS011;66638;50.050;21.124;2024-02-04T02:30:19;6.00;;;4.50;;
77524;SDS011;66638;50.050;21.124;2024-02-04T02:33:09;5.70;;;4.00;;
77524;SDS011;66638;50.050;21.124;2024-02-04T02:35:57;4.80;;;4.20;;
77524;SDS011;66638;50.050;21.124;2024-02-04T02:38:49;6.70;;;5.20;;
77524;SDS011;66638;50.050;21.124;2024-02-04T02:41:41;7.40;;;6.10;;
77524;SDS011;66638;50.050;21.124;2024-02-04T02:44:30;8.00;;;5.10;;
77524;SDS011;66638;50.050;21.124;2024-02-04T02:47:18;4.80;;;3.90;;
77524;SDS011;66638;50.050;21.124;2024-02-04T02:50:06;6.10;;;3.80;;
77524;SDS011;66638;50.050;21.124;2024-02-04T02:52:55;4.90;;;2.80;;
77524;SDS011;66638;50.050;21.124;2024-02-04T02:55:42;5.10;;;3.00;;
77524;SDS011;66638;50.050;21.124;2024-02-04T02:58:29;3.70;;;2.50;;
77524;SDS011;66638;50.050;21.124;2024-02-04T03:01:18;3.50;;;2.00;;
77524;SDS011;66638;50.050;21.124;2024-02-04T03:04:05;3.10;;;2.30;;
77524;SDS011;66638;50.050;21.124;2024-02-04T03:06:53;7.80;;;2.90;;
77524;SDS011;66638;50.050;21.124;2024-02-04T03:09:41;3.50;;;1.90;;
77524;SDS011;66638;50.050;21.124;2024-02-04T03:12:28;3.00;;;2.00;;
77524;SDS011;66638;50.050;21.124;2024-02-04T03:15:15;3.40;;;2.30;;
77524;SDS011;66638;50.050;21.124;2024-02-04T03:18:03;4.30;;;2.40;;
77524;SDS011;66638;50.050;21.124;2024-02-04T03:20:50;3.30;;;2.40;;
77524;SDS011;66638;50.050;21.124;2024-02-04T03:23:38;3.20;;;2.00;;
77524;SDS011;66638;50.050;21.124;2024-02-04T03:26:26;3.20;;;2.20;;
77524;SDS011;66638;50.050;21.124;2024-02-04T03:29:13;4.20;;;2.00;;
77524;SDS011;66638;50.050;21.124;2024-02-04T03:32:01;4.20;;;2.20;;
77524;SDS011;66638;50.050;21.124;2024-02-04T03:34:49;3.60;;;1.80;;
77524;SDS011;66638;50.050;21.124;2024-02-04T03:37:37;3.90;;;2.20;;
77524;SDS011;66638;50.050;21.124;2024-02-04T03:40:24;3.30;;;1.90;;
77524;SDS011;66638;50.050;21.124;2024-02-04T03:43:12;3.80;;;1.90;;
77524;SDS011;66638;50.050;21.124;2024-02-04T03:45:59;2.50;;;1.40;;
77524;SDS011;66638;50.050;21.124;2024-02-04T03:48:47;2.70;;;1.70;;
77524;SDS011;66638;50.050;21.124;2024-02-04T03:54:21;2.70;;;1.70;;
77524;SDS011;66638;50.050;21.124;2024-02-04T03:57:08;3.20;;;1.80;;
77524;SDS011;66638;50.050;21.124;2024-02-04T03:59:56;2.70;;;1.50;;
77524;SDS011;66638;50.050;21.124;2024-02-04T04:02:43;2.40;;;1.40;;
77524;SDS011;66638;50.050;21.124;2024-02-04T04:05:30;2.70;;;2.00;;
77524;SDS011;66638;50.050;21.124;2024-02-04T04:08:18;2.90;;;1.90;;
77524;SDS011;66638;50.050;21.124;2024-02-04T04:11:06;4.50;;;1.90;;
77524;SDS011;66638;50.050;21.124;2024-02-04T04:13:55;3.50;;;2.10;;
77524;SDS011;66638;50.050;21.124;2024-02-04T04:16:42;4.50;;;1.70;;
77524;SDS011;66638;50.050;21.124;2024-02-04T04:19:29;3.10;;;2.10;;
77524;SDS011;66638;50.050;21.124;2024-02-04T04:22:17;3.40;;;2.60;;
77524;SDS011;66638;50.050;21.124;2024-02-04T04:25:04;3.50;;;2.50;;
77524;SDS011;66638;50.050;21.124;2024-02-04T04:27:51;3.70;;;2.10;;
77524;SDS011;66638;50.050;21.124;2024-02-04T04:30:38;5.70;;;2.30;;
77524;SDS011;66638;50.050;21.124;2024-02-04T04:33:26;3.90;;;2.40;;
77524;SDS011;66638;50.050;21.124;2024-02-04T04:36:13;4.10;;;2.10;;
77524;SDS011;66638;50.050;21.124;2024-02-04T04:39:00;3.00;;;2.10;;
77524;SDS011;66638;50.050;21.124;2024-02-04T04:41:48;2.80;;;2.20;;
77524;SDS011;66638;50.050;21.124;2024-02-04T04:44:35;2.60;;;1.80;;
77524;SDS011;66638;50.050;21.124;2024-02-04T04:50:09;4.50;;;2.50;;
77524;SDS011;66638;50.050;21.124;2024-02-04T04:52:56;3.30;;;2.00;;
77524;SDS011;66638;50.050;21.124;2024-02-04T04:58:31;5.80;;;2.70;;
77524;SDS011;66638;50.050;21.124;2024-02-04T05:01:18;4.10;;;2.70;;
77524;SDS011;66638;50.050;21.124;2024-02-04T05:04:05;5.50;;;3.10;;
77524;SDS011;66638;50.050;21.124;2024-02-04T05:06:52;4.60;;;2.80;;
77524;SDS011;66638;50.050;21.124;2024-02-04T05:09:39;5.40;;;3.10;;
77524;SDS011;66638;50.050;21.124;2024-02-04T05:12:27;4.50;;;2.90;;
77524;SDS011;66638;50.050;21.124;2024-02-04T05:15:13;5.50;;;3.30;;
77524;SDS011;66638;50.050;21.124;2024-02-04T05:18:01;5.90;;;3.60;;
77524;SDS011;66638;50.050;21.124;2024-02-04T05:20:48;5.80;;;3.80;;
77524;SDS011;66638;50.050;21.124;2024-02-04T05:23:36;6.60;;;3.10;;
77524;SDS011;66638;50.050;21.124;2024-02-04T05:26:23;5.40;;;3.10;;
77524;SDS011;66638;50.050;21.124;2024-02-04T05:29:10;6.30;;;3.60;;
77524;SDS011;66638;50.050;21.124;2024-02-04T05:31:58;9.10;;;4.00;;
77524;SDS011;66638;50.050;21.124;2024-02-04T05:34:45;8.00;;;3.80;;
77524;SDS011;66638;50.050;21.124;2024-02-04T05:37:32;8.60;;;4.20;;
77524;SDS011;66638;50.050;21.124;2024-02-04T05:40:20;6.50;;;3.70;;
77524;SDS011;66638;50.050;21.124;2024-02-04T05:43:07;5.30;;;3.20;;
77524;SDS011;66638;50.050;21.124;2024-02-04T05:45:57;7.40;;;3.50;;
77524;SDS011;66638;50.050;21.124;2024-02-04T05:48:44;5.80;;;3.30;;
77524;SDS011;66638;50.050;21.124;2024-02-04T05:51:32;5.90;;;2.70;;
77524;SDS011;66638;50.050;21.124;2024-02-04T05:54:20;5.00;;;2.50;;
77524;SDS011;66638;50.050;21.124;2024-02-04T05:57:07;4.50;;;3.10;;
77524;SDS011;66638;50.050;21.124;2024-02-04T05:59:54;4.30;;;2.90;;
77524;SDS011;66638;50.050;21.124;2024-02-04T06:02:42;7.70;;;3.40;;
77524;SDS011;66638;50.050;21.124;2024-02-04T06:05:30;7.60;;;3.50;;
77524;SDS011;66638;50.050;21.124;2024-02-04T06:08:17;7.20;;;3.40;;
77524;SDS011;66638;50.050;21.124;2024-02-04T06:13:52;8.40;;;4.90;;
77524;SDS011;66638;50.050;21.124;2024-02-04T06:16:38;8.60;;;4.10;;
77524;SDS011;66638;50.050;21.124;2024-02-04T06:19:26;8.70;;;4.60;;
77524;SDS011;66638;50.050;21.124;2024-02-04T06:22:14;4.90;;;2.10;;
77524;SDS011;66638;50.050;21.124;2024-02-04T06:25:03;11.20;;;4.50;;
77524;SDS011;66638;50.050;21.124;2024-02-04T06:27:52;9.20;;;5.10;;
77524;SDS011;66638;50.050;21.124;2024-02-04T06:30:40;11.10;;;5.60;;
77524;SDS011;66638;50.050;21.124;2024-02-04T06:33:28;5.00;;;2.70;;
77524;SDS011;66638;50.050;21.124;2024-02-04T06:36:15;4.20;;;2.70;;
77524;SDS011;66638;50.050;21.124;2024-02-04T06:39:03;3.90;;;2.40;;
77524;SDS011;66638;50.050;21.124;2024-02-04T06:41:50;7.00;;;5.20;;
77524;SDS011;66638;50.050;21.124;2024-02-04T06:47:24;4.70;;;2.60;;
77524;SDS011;66638;50.050;21.124;2024-02-04T06:50:11;3.80;;;2.50;;
77524;SDS011;66638;50.050;21.124;2024-02-04T06:53:02;5.90;;;1.80;;
77524;SDS011;66638;50.050;21.124;2024-02-04T06:55:50;4.20;;;2.30;;
77524;SDS011;66638;50.050;21.124;2024-02-04T06:58:37;3.60;;;2.40;;
77524;SDS011;66638;50.050;21.124;2024-02-04T07:01:25;3.70;;;2.00;;
77524;SDS011;66638;50.050;21.124;2024-02-04T07:04:12;3.60;;;2.00;;
77524;SDS011;66638;50.050;21.124;2024-02-04T07:09:46;4.20;;;1.80;;
77524;SDS011;66638;50.050;21.124;2024-02-04T07:12:33;4.30;;;2.30;;
77524;SDS011;66638;50.050;21.124;2024-02-04T07:15:20;2.90;;;1.70;;
77524;SDS011;66638;50.050;21.124;2024-02-04T07:20:54;3.80;;;2.10;;
77524;SDS011;66638;50.050;21.124;2024-02-04T07:26:28;6.70;;;2.40;;
77524;SDS011;66638;50.050;21.124;2024-02-04T07:29:16;3.40;;;2.10;;
77524;SDS011;66638;50.050;21.124;2024-02-04T07:32:03;4.20;;;2.80;;
77524;SDS011;66638;50.050;21.124;2024-02-04T07:34:50;5.20;;;3.20;;
77524;SDS011;66638;50.050;21.124;2024-02-04T07:37:37;7.00;;;3.60;;
77524;SDS011;66638;50.050;21.124;2024-02-04T07:40:25;10.10;;;3.50;;
77524;SDS011;66638;50.050;21.124;2024-02-04T07:43:14;6.50;;;2.40;;
77524;SDS011;66638;50.050;21.124;2024-02-04T07:46:02;5.10;;;3.10;;
77524;SDS011;66638;50.050;21.124;2024-02-04T07:48:49;8.00;;;3.40;;
77524;SDS011;66638;50.050;21.124;2024-02-04T07:51:36;6.40;;;3.80;;
77524;SDS011;66638;50.050;21.124;2024-02-04T07:54:24;4.20;;;2.50;;
77524;SDS011;66638;50.050;21.124;2024-02-04T07:57:12;5.00;;;3.30;;
77524;SDS011;66638;50.050;21.124;2024-02-04T07:59:59;7.20;;;3.30;;
77524;SDS011;66638;50.050;21.124;2024-02-04T08:02:47;12.40;;;6.20;;
77524;SDS011;66638;50.050;21.124;2024-02-04T08:05:34;7.30;;;3.00;;
77524;SDS011;66638;50.050;21.124;2024-02-04T08:08:24;11.10;;;4.90;;
77524;SDS011;66638;50.050;21.124;2024-02-04T08:11:15;5.40;;;2.60;;
77524;SDS011;66638;50.050;21.124;2024-02-04T08:14:03;29.60;;;11.80;;
77524;SDS011;66638;50.050;21.124;2024-02-04T08:16:51;12.90;;;6.60;;
77524;SDS011;66638;50.050;21.124;2024-02-04T08:19:38;12.20;;;5.30;;
77524;SDS011;66638;50.050;21.124;2024-02-04T08:22:25;14.90;;;7.10;;
77524;SDS011;66638;50.050;21.124;2024-02-04T08:27:59;16.70;;;6.20;;
77524;SDS011;66638;50.050;21.124;2024-02-04T08:30:47;14.10;;;5.70;;
77524;SDS011;66638;50.050;21.124;2024-02-04T08:33:34;7.20;;;4.10;;
77524;SDS011;66638;50.050;21.124;2024-02-04T08:36:21;8.60;;;3.50;;
77524;SDS011;66638;50.050;21.124;2024-02-04T08:39:08;7.50;;;3.60;;
77524;SDS011;66638;50.050;21.124;2024-02-04T08:41:56;10.50;;;4.30;;
77524;SDS011;66638;50.050;21.124;2024-02-04T08:44:44;12.30;;;5.60;;
77524;SDS011;66638;50.050;21.124;2024-02-04T08:47:31;8.60;;;4.00;;
77524;SDS011;66638;50.050;21.124;2024-02-04T08:50:18;10.40;;;4.80;;
77524;SDS011;66638;50.050;21.124;2024-02-04T08:53:06;9.90;;;4.50;;
77524;SDS011;66638;50.050;21.124;2024-02-04T08:55:53;12.30;;;5.80;;
77524;SDS011;66638;50.050;21.124;2024-02-04T08:58:40;10.60;;;5.60;;
77524;SDS011;66638;50.050;21.124;2024-02-04T09:01:27;10.00;;;6.40;;
77524;SDS011;66638;50.050;21.124;2024-02-04T09:04:14;13.40;;;9.60;;
77524;SDS011;66638;50.050;21.124;2024-02-04T09:07:02;5.10;;;4.00;;
77524;SDS011;66638;50.050;21.124;2024-02-04T09:09:49;6.90;;;4.40;;
77524;SDS011;66638;50.050;21.124;2024-02-04T09:12:37;8.80;;;5.20;;
77524;SDS011;66638;50.050;21.124;2024-02-04T09:15:24;4.10;;;2.60;;
77524;SDS011;66638;50.050;21.124;2024-02-04T09:18:11;5.10;;;2.80;;
77524;SDS011;66638;50.050;21.124;2024-02-04T09:20:58;6.50;;;2.90;;
77524;SDS011;66638;50.050;21.124;2024-02-04T09:23:45;4.00;;;2.00;;
77524;SDS011;66638;50.050;21.124;2024-02-04T09:26:33;6.30;;;3.60;;
77524;SDS011;66638;50.050;21.124;2024-02-04T09:29:20;5.20;;;2.30;;
77524;SDS011;66638;50.050;21.124;2024-02-04T09:32:07;5.80;;;2.90;;
77524;SDS011;66638;50.050;21.124;2024-02-04T09:34:54;4.10;;;2.20;;
77524;SDS011;66638;50.050;21.124;2024-02-04T09:37:42;4.60;;;2.20;;
77524;SDS011;66638;50.050;21.124;2024-02-04T09:40:29;8.00;;;3.40;;
77524;SDS011;66638;50.050;21.124;2024-02-04T09:43:16;5.90;;;2.70;;
77524;SDS011;66638;50.050;21.124;2024-02-04T09:46:05;5.60;;;2.20;;
77524;SDS011;66638;50.050;21.124;2024-02-04T09:48:53;6.20;;;2.30;;
77524;SDS011;66638;50.050;21.124;2024-02-04T09:51:42;4.70;;;2.50;;
77524;SDS011;66638;50.050;21.124;2024-02-04T09:54:31;5.60;;;2.40;;
77524;SDS011;66638;50.050;21.124;2024-02-04T09:57:19;5.60;;;2.60;;
77524;SDS011;66638;50.050;21.124;2024-02-04T10:00:07;5.30;;;2.00;;
77524;SDS011;66638;50.050;21.124;2024-02-04T10:03:00;4.10;;;1.90;;
77524;SDS011;66638;50.050;21.124;2024-02-04T10:05:50;4.20;;;2.10;;
77524;SDS011;66638;50.050;21.124;2024-02-04T10:08:37;6.40;;;2.60;;
77524;SDS011;66638;50.050;21.124;2024-02-04T10:11:24;4.40;;;2.20;;
77524;SDS011;66638;50.050;21.124;2024-02-04T10:14:11;3.90;;;2.20;;
77524;SDS011;66638;50.050;21.124;2024-02-04T10:16:58;5.50;;;2.70;;
77524;SDS011;66638;50.050;21.124;2024-02-04T10:19:49;5.70;;;2.30;;
77524;SDS011;66638;50.050;21.124;2024-02-04T10:22:36;6.00;;;2.50;;
77524;SDS011;66638;50.050;21.124;2024-02-04T10:25:23;4.40;;;2.10;;
77524;SDS011;66638;50.050;21.124;2024-02-04T10:28:11;6.30;;;2.40;;
77524;SDS011;66638;50.050;21.124;2024-02-04T10:30:58;5.10;;;2.30;;
77524;SDS011;66638;50.050;21.124;2024-02-04T10:33:45;4.50;;;2.00;;
77524;SDS011;66638;50.050;21.124;2024-02-04T10:36:33;5.00;;;1.80;;
77524;SDS011;66638;50.050;21.124;2024-02-04T10:39:20;5.10;;;1.90;;
77524;SDS011;66638;50.050;21.124;2024-02-04T10:42:07;5.70;;;2.10;;
77524;SDS011;66638;50.050;21.124;2024-02-04T10:44:55;4.30;;;2.00;;
77524;SDS011;66638;50.050;21.124;2024-02-04T10:47:46;4.10;;;1.80;;
77524;SDS011;66638;50.050;21.124;2024-02-04T10:50:40;6.10;;;2.50;;
77524;SDS011;66638;50.050;21.124;2024-02-04T10:53:28;5.30;;;2.00;;
77524;SDS011;66638;50.050;21.124;2024-02-04T10:56:22;4.90;;;1.90;;
77524;SDS011;66638;50.050;21.124;2024-02-04T10:59:14;4.70;;;2.30;;
77524;SDS011;66638;50.050;21.124;2024-02-04T11:04:55;7.10;;;2.10;;
77524;SDS011;66638;50.050;21.124;2024-02-04T11:07:42;4.50;;;1.90;;
77524;SDS011;66638;50.050;21.124;2024-02-04T11:10:30;5.70;;;2.20;;
77524;SDS011;66638;50.050;21.124;2024-02-04T11:13:18;5.70;;;2.00;;
77524;SDS011;66638;50.050;21.124;2024-02-04T11:16:07;7.60;;;3.40;;
77524;SDS011;66638;50.050;21.124;2024-02-04T11:22:41;8.10;;;3.10;;
77524;SDS011;66638;50.050;21.124;2024-02-04T11:25:45;5.30;;;2.50;;
77524;SDS011;66638;50.050;21.124;2024-02-04T11:28:34;5.90;;;2.30;;
77524;SDS011;66638;50.050;21.124;2024-02-04T11:31:23;7.50;;;2.90;;
77524;SDS011;66638;50.050;21.124;2024-02-04T11:34:10;8.50;;;3.10;;
77524;SDS011;66638;50.050;21.124;2024-02-04T11:36:57;6.30;;;2.90;;
77524;SDS011;66638;50.050;21.124;2024-02-04T11:39:51;8.20;;;3.00;;
77524;SDS011;66638;50.050;21.124;2024-02-04T11:42:40;8.20;;;3.40;;
77524;SDS011;66638;50.050;21.124;2024-02-04T11:45:28;6.20;;;3.60;;
77524;SDS011;66638;50.050;21.124;2024-02-04T11:48:15;10.90;;;3.80;;
77524;SDS011;66638;50.050;21.124;2024-02-04T11:51:04;6.60;;;3.10;;
77524;SDS011;66638;50.050;21.124;2024-02-04T11:53:52;8.30;;;3.30;;
77524;SDS011;66638;50.050;21.124;2024-02-04T11:56:39;7.20;;;2.20;;
77524;SDS011;66638;50.050;21.124;2024-02-04T11:59:26;7.10;;;2.70;;
77524;SDS011;66638;50.050;21.124;2024-02-04T12:02:17;5.60;;;3.00;;
77524;SDS011;66638;50.050;21.124;2024-02-04T12:05:05;6.70;;;2.40;;
77524;SDS011;66638;50.050;21.124;2024-02-04T12:07:53;3.60;;;2.00;;
77524;SDS011;66638;50.050;21.124;2024-02-04T12:10:40;4.90;;;2.60;;
77524;SDS011;66638;50.050;21.124;2024-02-04T12:13:28;5.10;;;2.40;;
77524;SDS011;66638;50.050;21.124;2024-02-04T12:16:15;5.50;;;2.60;;
77524;SDS011;66638;50.050;21.124;2024-02-04T12:19:02;3.50;;;2.10;;
77524;SDS011;66638;50.050;21.124;2024-02-04T12:21:53;4.40;;;2.10;;
77524;SDS011;66638;50.050;21.124;2024-02-04T12:24:42;4.50;;;2.00;;
77524;SDS011;66638;50.050;21.124;2024-02-04T12:27:29;5.40;;;2.30;;
77524;SDS011;66638;50.050;21.124;2024-02-04T12:30:17;6.10;;;2.20;;
77524;SDS011;66638;50.050;21.124;2024-02-04T12:33:05;3.80;;;2.00;;
77524;SDS011;66638;50.050;21.124;2024-02-04T12:35:53;4.20;;;2.20;;
77524;SDS011;66638;50.050;21.124;2024-02-04T12:38:49;5.80;;;2.70;;
77524;SDS011;66638;50.050;21.124;2024-02-04T12:41:38;4.20;;;2.30;;
77524;SDS011;66638;50.050;21.124;2024-02-04T12:44:25;8.30;;;3.10;;
77524;SDS011;66638;50.050;21.124;2024-02-04T12:47:13;5.70;;;2.80;;
77524;SDS011;66638;50.050;21.124;2024-02-04T12:50:01;5.60;;;2.90;;
77524;SDS011;66638;50.050;21.124;2024-02-04T12:52:50;6.30;;;2.90;;
77524;SDS011;66638;50.050;21.124;2024-02-04T12:55:57;5.20;;;2.50;;
77524;SDS011;66638;50.050;21.124;2024-02-04T12:58:46;7.60;;;2.90;;
77524;SDS011;66638;50.050;21.124;2024-02-04T13:01:34;6.10;;;2.90;;
77524;SDS011;66638;50.050;21.124;2024-02-04T13:04:22;6.70;;;2.80;;
77524;SDS011;66638;50.050;21.124;2024-02-04T13:07:10;4.00;;;2.80;;
77524;SDS011;66638;50.050;21.124;2024-02-04T13:10:04;5.10;;;3.30;;
77524;SDS011;66638;50.050;21.124;2024-02-04T13:13:05;6.00;;;3.10;;
77524;SDS011;66638;50.050;21.124;2024-02-04T13:15:54;5.20;;;2.80;;
77524;SDS011;66638;50.050;21.124;2024-02-04T13:18:43;5.10;;;2.90;;
77524;SDS011;66638;50.050;21.124;2024-02-04T13:21:30;4.90;;;3.30;;
77524;SDS011;66638;50.050;21.124;2024-02-04T13:24:18;9.80;;;3.70;;
77524;SDS011;66638;50.050;21.124;2024-02-04T13:27:06;6.10;;;3.20;;
77524;SDS011;66638;50.050;21.124;2024-02-04T13:29:55;9.10;;;4.20;;
77524;SDS011;66638;50.050;21.124;2024-02-04T13:32:43;6.50;;;2.80;;
77524;SDS011;66638;50.050;21.124;2024-02-04T13:35:30;7.90;;;3.20;;
77524;SDS011;66638;50.050;21.124;2024-02-04T13:38:17;8.40;;;3.60;;
77524;SDS011;66638;50.050;21.124;2024-02-04T13:41:05;4.50;;;3.00;;
77524;SDS011;66638;50.050;21.124;2024-02-04T13:43:57;5.70;;;3.20;;
77524;SDS011;66638;50.050;21.124;2024-02-04T13:46:47;5.20;;;3.80;;
77524;SDS011;66638;50.050;21.124;2024-02-04T13:49:36;11.50;;;6.20;;
77524;SDS011;66638;50.050;21.124;2024-02-04T13:52:23;8.90;;;4.70;;
77524;SDS011;66638;50.050;21.124;2024-02-04T13:55:10;6.30;;;4.50;;
77524;SDS011;66638;50.050;21.124;2024-02-04T13:57:58;9.10;;;3.90;;
77524;SDS011;66638;50.050;21.124;2024-02-04T14:00:46;4.90;;;2.30;;
77524;SDS011;66638;50.050;21.124;2024-02-04T14:03:33;6.60;;;3.60;;
77524;SDS011;66638;50.050;21.124;2024-02-04T14:09:08;6.00;;;3.00;;
77524;SDS011;66638;50.050;21.124;2024-02-04T14:14:42;6.00;;;3.30;;
77524;SDS011;66638;50.050;21.124;2024-02-04T14:17:29;6.20;;;3.50;;
77524;SDS011;66638;50.050;21.124;2024-02-04T14:20:17;4.80;;;3.00;;
77524;SDS011;66638;50.050;21.124;2024-02-04T14:23:04;4.80;;;3.00;;
77524;SDS011;66638;50.050;21.124;2024-02-04T14:25:51;5.00;;;2.90;;
77524;SDS011;66638;50.050;21.124;2024-02-04T14:28:39;3.20;;;2.30;;
77524;SDS011;66638;50.050;21.124;2024-02-04T14:31:28;8.20;;;3.50;;
77524;SDS011;66638;50.050;21.124;2024-02-04T14:34:15;5.50;;;3.00;;
77524;SDS011;66638;50.050;21.124;2024-02-04T14:37:02;7.10;;;3.20;;
77524;SDS011;66638;50.050;21.124;2024-02-04T14:39:49;5.10;;;3.20;;
77524;SDS011;66638;50.050;21.124;2024-02-04T14:42:37;6.70;;;3.00;;
77524;SDS011;66638;50.050;21.124;2024-02-04T14:45:24;5.80;;;3.10;;
77524;SDS011;66638;50.050;21.124;2024-02-04T14:48:11;6.80;;;3.20;;
77524;SDS011;66638;50.050;21.124;2024-02-04T14:50:58;8.10;;;3.20;;
77524;SDS011;66638;50.050;21.124;2024-02-04T14:53:45;7.40;;;3.90;;
77524;SDS011;66638;50.050;21.124;2024-02-04T14:56:36;6.40;;;3.70;;
77524;SDS011;66638;50.050;21.124;2024-02-04T14:59:24;8.30;;;4.80;;
77524;SDS011;66638;50.050;21.124;2024-02-04T15:02:12;11.40;;;5.40;;
77524;SDS011;66638;50.050;21.124;2024-02-04T15:05:03;18.30;;;6.20;;
77524;SDS011;66638;50.050;21.124;2024-02-04T15:07:51;8.60;;;5.00;;
77524;SDS011;66638;50.050;21.124;2024-02-04T15:10:38;8.40;;;5.80;;
77524;SDS011;66638;50.050;21.124;2024-02-04T15:13:25;9.50;;;5.70;;
77524;SDS011;66638;50.050;21.124;2024-02-04T15:16:13;12.30;;;5.90;;
77524;SDS011;66638;50.050;21.124;2024-02-04T15:19:01;10.30;;;7.80;;
77524;SDS011;66638;50.050;21.124;2024-02-04T15:21:56;16.20;;;9.80;;
77524;SDS011;66638;50.050;21.124;2024-02-04T15:24:48;13.70;;;9.40;;
77524;SDS011;66638;50.050;21.124;2024-02-04T15:27:35;42.10;;;25.80;;
77524;SDS011;66638;50.050;21.124;2024-02-04T15:30:23;17.40;;;11.30;;
77524;SDS011;66638;50.050;21.124;2024-02-04T15:33:15;15.20;;;10.10;;
77524;SDS011;66638;50.050;21.124;2024-02-04T15:36:03;21.30;;;15.00;;
77524;SDS011;66638;50.050;21.124;2024-02-04T15:38:58;17.00;;;12.00;;
77524;SDS011;66638;50.050;21.124;2024-02-04T15:41:45;21.60;;;15.00;;
77524;SDS011;66638;50.050;21.124;2024-02-04T15:44:33;27.60;;;18.60;;
77524;SDS011;66638;50.050;21.124;2024-02-04T15:47:20;15.60;;;9.20;;
77524;SDS011;66638;50.050;21.124;2024-02-04T15:50:10;14.30;;;8.70;;
77524;SDS011;66638;50.050;21.124;2024-02-04T15:53:00;13.40;;;9.30;;
77524;SDS011;66638;50.050;21.124;2024-02-04T15:55:47;12.50;;;8.10;;
77524;SDS011;66638;50.050;21.124;2024-02-04T15:58:36;14.50;;;8.90;;
77524;SDS011;66638;50.050;21.124;2024-02-04T16:01:27;13.40;;;8.00;;
77524;SDS011;66638;50.050;21.124;2024-02-04T16:04:15;11.60;;;7.00;;
77524;SDS011;66638;50.050;21.124;2024-02-04T16:07:05;12.60;;;8.40;;
77524;SDS011;66638;50.050;21.124;2024-02-04T16:09:52;14.20;;;9.40;;
77524;SDS011;66638;50.050;21.124;2024-02-04T16:12:54;16.00;;;9.90;;
77524;SDS011;66638;50.050;21.124;2024-02-04T16:15:45;18.00;;;10.30;;
77524;SDS011;66638;50.050;21.124;2024-02-04T16:18:34;15.90;;;9.50;;
77524;SDS011;66638;50.050;21.124;2024-02-04T16:21:21;13.00;;;6.70;;
77524;SDS011;66638;50.050;21.124;2024-02-04T16:24:08;14.90;;;8.40;;
77524;SDS011;66638;50.050;21.124;2024-02-04T16:26:55;17.70;;;8.80;;
77524;SDS011;66638;50.050;21.124;2024-02-04T16:29:43;10.40;;;7.00;;
77524;SDS011;66638;50.050;21.124;2024-02-04T16:32:30;23.50;;;11.50;;
77524;SDS011;66638;50.050;21.124;2024-02-04T16:35:18;15.60;;;8.20;;
77524;SDS011;66638;50.050;21.124;2024-02-04T16:38:10;12.20;;;8.20;;
77524;SDS011;66638;50.050;21.124;2024-02-04T16:41:04;11.30;;;7.00;;
77524;SDS011;66638;50.050;21.124;2024-02-04T16:43:51;10.30;;;6.50;;
77524;SDS011;66638;50.050;21.124;2024-02-04T16:46:38;12.20;;;7.00;;
77524;SDS011;66638;50.050;21.124;2024-02-04T16:49:28;15.30;;;7.70;;
77524;SDS011;66638;50.050;21.124;2024-02-04T16:52:18;20.00;;;12.40;;
77524;SDS011;66638;50.050;21.124;2024-02-04T16:57:53;27.00;;;13.20;;
77524;SDS011;66638;50.050;21.124;2024-02-04T17:03:30;15.20;;;8.60;;
77524;SDS011;66638;50.050;21.124;2024-02-04T17:06:17;20.50;;;12.40;;
77524;SDS011;66638;50.050;21.124;2024-02-04T17:09:05;21.90;;;12.40;;
77524;SDS011;66638;50.050;21.124;2024-02-04T17:12:01;15.40;;;8.80;;
77524;SDS011;66638;50.050;21.124;2024-02-04T17:14:49;16.50;;;8.90;;
77524;SDS011;66638;50.050;21.124;2024-02-04T17:17:37;20.80;;;7.70;;
77524;SDS011;66638;50.050;21.124;2024-02-04T17:20:29;17.60;;;7.50;;
77524;SDS011;66638;50.050;21.124;2024-02-04T17:23:19;12.50;;;7.30;;
77524;SDS011;66638;50.050;21.124;2024-02-04T17:26:08;11.50;;;6.50;;
77524;SDS011;66638;50.050;21.124;2024-02-04T17:28:57;16.50;;;7.70;;
77524;SDS011;66638;50.050;21.124;2024-02-04T17:31:45;10.70;;;6.40;;